Time;durP1;ratioP1;P1;durP2;ratioP2;P2;SDS_P1;SDS_P2;PMS_P1;PMS_P2;Temp;Humidity;BMP_temperature;BMP_pressure;BME280_temperature;BME280_humidity;BME280_pressure;Samples;Min_cycle;Max_cycle;Signal;HPM_P1;HPM_P2
2022/10/08 00:00:28;;;;;;;20.42;18.67;;;13.40;86.80;;;;;;4954517;28;20035;-75
2022/10/08 00:02:54;;;;;;;22.40;20.48;;;13.40;86.90;;;;;;4943736;28;20031;-75
2022/10/08 00:05:20;;;;;;;20.55;18.60;;;13.40;87.20;;;;;;4954659;28;20042;-75
2022/10/08 00:07:46;;;;;;;19.92;18.02;;;13.30;87.10;;;;;;4944437;29;20028;-75
2022/10/08 00:10:12;;;;;;;21.35;19.58;;;13.40;87.30;;;;;;4952594;28;20031;-75
2022/10/08 00:12:38;;;;;;;20.23;18.42;;;13.40;86.70;;;;;;4972062;28;20023;-75
2022/10/08 00:15:05;;;;;;;20.50;18.52;;;13.30;86.70;;;;;;4951962;28;20035;-76
2022/10/08 00:17:31;;;;;;;21.80;19.98;;;13.40;86.90;;;;;;4955376;28;20054;-74
2022/10/08 00:19:57;;;;;;;21.65;19.80;;;13.40;86.60;;;;;;4954364;28;20036;-74
2022/10/08 00:22:24;;;;;;;19.90;18.05;;;13.30;86.60;;;;;;4971289;28;20042;-74
2022/10/08 00:24:52;;;;;;;20.33;18.60;;;13.20;86.90;;;;;;4939272;29;20503;-74
2022/10/08 00:27:22;;;;;;;20.75;18.95;;;13.20;86.90;;;;;;4950010;29;20055;-75
2022/10/08 00:29:50;;;;;;;20.08;18.48;;;13.20;86.90;;;;;;4966157;28;20043;-75
2022/10/08 00:32:18;;;;;;;20.85;18.67;;;13.20;86.80;;;;;;4941889;28;20054;-75
2022/10/08 00:34:46;;;;;;;20.13;18.45;;;13.20;86.70;;;;;;4954651;29;20024;-75
2022/10/08 00:37:14;;;;;;;19.15;17.60;;;13.20;86.70;;;;;;4969560;28;20070;-74
2022/10/08 00:39:40;;;;;;;19.65;17.92;;;13.10;86.80;;;;;;4957933;28;20043;-74
2022/10/08 00:42:06;;;;;;;18.83;17.10;;;13.00;87.00;;;;;;4954172;28;20039;-75
2022/10/08 00:44:54;;;;;;;19.35;17.52;;;13.10;87.10;;;;;;4970854;28;20035;-75
2022/10/08 00:47:23;;;;;;;19.60;17.70;;;13.10;86.90;;;;;;4954778;28;20058;-75
2022/10/08 00:49:50;;;;;;;21.02;18.17;;;13.00;87.00;;;;;;4952809;28;20031;-74
2022/10/08 00:52:17;;;;;;;18.10;16.60;;;13.00;87.10;;;;;;4947331;28;20050;-75
2022/10/08 00:54:43;;;;;;;18.85;17.00;;;13.00;87.20;;;;;;4936431;29;20031;-75
2022/10/08 00:57:09;;;;;;;19.10;17.05;;;13.10;87.10;;;;;;4944156;29;20058;-75
2022/10/08 00:59:36;;;;;;;18.30;16.80;;;13.00;86.80;;;;;;4945453;28;20043;-75
2022/10/08 01:02:03;;;;;;;18.55;17.10;;;13.00;87.20;;;;;;4950135;28;20051;-74
2022/10/08 01:04:29;;;;;;;18.90;17.35;;;12.90;87.30;;;;;;4947674;29;20404;-74
2022/10/08 01:07:06;;;;;;;18.50;16.90;;;12.80;87.40;;;;;;4937857;29;20051;-75
2022/10/08 01:09:36;;;;;;;18.35;16.88;;;12.80;87.70;;;;;;4975941;28;20070;-75
2022/10/08 01:12:22;;;;;;;17.95;16.50;;;12.70;87.60;;;;;;4957783;28;20050;-75
2022/10/08 01:14:59;;;;;;;21.13;19.13;;;12.70;87.70;;;;;;4945518;29;20031;-75
2022/10/08 01:17:40;;;;;;;19.75;17.95;;;12.80;87.70;;;;;;4953134;28;20032;-74
2022/10/08 01:20:25;;;;;;;;;;;12.80;87.80;;;;;;4954601;28;20031;-75
2022/10/08 01:23:06;;;;;;;18.13;16.63;;;12.70;87.70;;;;;;4955342;28;19917;-75
2022/10/08 01:25:57;;;;;;;21.48;19.60;;;12.70;88.10;;;;;;4961203;28;20038;-75
2022/10/08 01:28:33;;;;;;;22.23;20.30;;;12.60;88.30;;;;;;4937175;29;20035;-74
2022/10/08 01:31:10;;;;;;;23.08;20.95;;;12.70;88.20;;;;;;4955037;28;20476;-74
2022/10/08 01:33:58;;;;;;;20.08;18.13;;;12.60;88.20;;;;;;4957634;28;20051;-74
2022/10/08 01:36:24;;;;;;;18.55;16.92;;;12.70;88.10;;;;;;4954952;29;20043;-75
2022/10/08 01:38:53;;;;;;;18.02;16.38;;;12.70;87.90;;;;;;4966252;28;20047;-74
2022/10/08 01:41:19;;;;;;;18.60;16.98;;;12.60;87.80;;;;;;4943121;29;20393;-74
2022/10/08 01:43:51;;;;;;;19.00;17.02;;;12.60;88.80;;;;;;4948570;28;20035;-74
2022/10/08 01:46:19;;;;;;;19.02;17.02;;;12.70;88.10;;;;;;4934558;28;20051;-74
2022/10/08 01:48:45;;;;;;;19.00;17.05;;;12.60;88.00;;;;;;4969378;28;20033;-75
2022/10/08 01:51:18;;;;;;;19.55;17.33;;;12.60;88.20;;;;;;4934723;29;20040;-75
2022/10/08 01:53:45;;;;;;;19.60;17.75;;;12.50;88.50;;;;;;4950529;29;20043;-75
2022/10/08 01:56:13;;;;;;;20.55;18.63;;;12.40;88.60;;;;;;4953915;28;20034;-75
2022/10/08 01:58:39;;;;;;;20.45;18.50;;;12.40;88.80;;;;;;4955932;28;20039;-75
2022/10/08 02:01:14;;;;;;;17.73;16.23;;;12.40;88.70;;;;;;4949571;28;20039;-75
2022/10/08 02:04:31;;;;;;;19.02;17.35;;;12.40;88.60;;;;;;4944467;28;20051;-74
2022/10/08 02:06:27;;;;;;;18.42;17.13;;;12.40;88.80;;;;;;4947772;28;20034;-75
2022/10/08 02:08:53;;;;;;;18.35;16.50;;;12.40;88.70;;;;;;4959775;28;20024;-75
2022/10/08 02:11:19;;;;;;;17.70;16.30;;;12.40;89.00;;;;;;4949677;29;20412;-75
2022/10/08 02:13:45;;;;;;;18.20;16.17;;;12.40;88.80;;;;;;4948191;29;20027;-76
2022/10/08 02:16:16;;;;;;;19.48;17.58;;;12.40;88.80;;;;;;4949653;28;20039;-76
2022/10/08 02:19:08;;;;;;;18.07;16.47;;;12.40;88.90;;;;;;4933180;29;20047;-76
2022/10/08 02:21:34;;;;;;;18.10;16.70;;;12.30;89.00;;;;;;4935986;29;20039;-75
2022/10/08 02:24:29;;;;;;;20.77;16.40;;;12.30;89.00;;;;;;4952436;29;20469;-75
2022/10/08 02:26:56;;;;;;;18.05;16.48;;;12.30;88.80;;;;;;4949487;29;20024;-75
2022/10/08 02:29:37;;;;;;;16.70;15.27;;;12.30;88.80;;;;;;4959019;28;20469;-75
2022/10/08 02:32:03;;;;;;;17.83;16.17;;;12.30;88.70;;;;;;4966471;28;20409;-76
2022/10/08 02:34:36;;;;;;;17.65;16.13;;;12.20;88.90;;;;;;4944917;29;20043;-75
2022/10/08 02:37:26;;;;;;;18.30;16.85;;;12.20;88.90;;;;;;4952049;28;20042;-74
2022/10/08 02:40:03;;;;;;;18.38;16.50;;;12.20;88.90;;;;;;4967191;28;20596;-75
2022/10/08 02:42:30;;;;;;;18.20;16.33;;;12.20;88.90;;;;;;4967378;28;20027;-75
2022/10/08 02:45:11;;;;;;;17.10;15.52;;;12.20;89.00;;;;;;4934937;29;20054;-74
2022/10/08 02:47:37;;;;;;;18.08;16.23;;;12.20;88.80;;;;;;4963493;28;20046;-74
2022/10/08 02:50:10;;;;;;;18.77;16.85;;;12.20;88.90;;;;;;4957535;28;20034;-74
2022/10/08 02:52:38;;;;;;;17.48;16.13;;;12.20;88.90;;;;;;4965479;28;20481;-75
2022/10/08 02:55:10;;;;;;;19.13;17.23;;;12.20;89.80;;;;;;4950049;28;21756;-75
2022/10/08 02:57:42;;;;;;;18.50;16.80;;;12.10;88.90;;;;;;4943228;29;20031;-74
2022/10/08 03:00:09;;;;;;;18.38;16.63;;;12.10;88.90;;;;;;4936240;28;20058;-76
2022/10/08 03:03:13;;;;;;;19.02;17.13;;;12.10;89.10;;;;;;4932839;29;20020;-75
2022/10/08 03:05:40;;;;;;;18.15;16.40;;;12.10;89.00;;;;;;4925325;29;20373;-75
2022/10/08 03:08:07;;;;;;;17.92;16.40;;;12.10;89.00;;;;;;4933666;28;20146;-75
2022/10/08 03:10:34;;;;;;;19.05;16.92;;;12.00;89.00;;;;;;4934900;29;20031;-75
2022/10/08 03:13:00;;;;;;;18.70;17.17;;;12.00;89.10;;;;;;4933657;29;20039;-75
2022/10/08 03:15:27;;;;;;;19.38;17.45;;;12.00;88.80;;;;;;4922948;28;20046;-75
2022/10/08 03:17:53;;;;;;;20.25;17.38;;;12.00;89.10;;;;;;4928891;29;20136;-75
2022/10/08 03:20:19;;;;;;;21.02;19.02;;;12.00;89.20;;;;;;4928765;29;20051;-74
2022/10/08 03:22:46;;;;;;;19.40;17.73;;;11.90;89.40;;;;;;4925395;29;20039;-75
2022/10/08 03:25:12;;;;;;;18.77;17.05;;;11.90;89.40;;;;;;4927520;29;20050;-76
2022/10/08 03:27:38;;;;;;;24.50;22.65;;;11.90;89.20;;;;;;4936028;28;20039;-74
2022/10/08 03:30:05;;;;;;;23.83;21.75;;;11.90;90.50;;;;;;4944401;28;20131;-76
2022/10/08 03:32:31;;;;;;;21.13;19.15;;;11.90;90.70;;;;;;4935448;29;20377;-75
2022/10/08 03:34:57;;;;;;;20.85;18.65;;;11.90;90.00;;;;;;4946621;28;20039;-76
2022/10/08 03:37:23;;;;;;;19.20;17.42;;;11.90;89.70;;;;;;4941117;28;20036;-76
2022/10/08 03:39:49;;;;;;;20.23;18.23;;;11.90;89.70;;;;;;4944443;28;20039;-76
2022/10/08 03:42:15;;;;;;;20.00;18.10;;;11.80;89.50;;;;;;4949890;29;20406;-75
2022/10/08 03:44:41;;;;;;;20.52;18.52;;;11.90;89.40;;;;;;4953023;29;20028;-75
2022/10/08 03:47:07;;;;;;;19.63;18.08;;;11.80;89.30;;;;;;4948342;28;20040;-74
2022/10/08 03:49:33;;;;;;;21.83;19.75;;;11.80;89.50;;;;;;4963798;28;20035;-75
2022/10/08 03:52:00;;;;;;;22.40;20.63;;;11.80;89.40;;;;;;4971763;28;20027;-75
2022/10/08 03:54:26;;;;;;;22.35;19.38;;;11.80;89.30;;;;;;4955896;28;20043;-75
2022/10/08 03:56:52;;;;;;;20.77;19.08;;;11.70;89.50;;;;;;4952566;28;20035;-75
2022/10/08 03:59:18;;;;;;;22.50;20.55;;;11.80;89.60;;;;;;4964971;28;20044;-75
2022/10/08 04:01:44;;;;;;;21.65;19.50;;;11.80;90.00;;;;;;4936586;28;20485;-74
2022/10/08 04:04:10;;;;;;;23.58;21.10;;;11.70;89.60;;;;;;4948965;28;20039;-75
2022/10/08 04:06:36;;;;;;;21.65;19.85;;;11.80;89.80;;;;;;4978454;28;20534;-75
2022/10/08 04:09:02;;;;;;;24.83;22.33;;;11.80;89.50;;;;;;4969395;28;20027;-74
2022/10/08 04:11:29;;;;;;;22.25;20.23;;;11.80;89.50;;;;;;4968354;28;20050;-74
2022/10/08 04:13:55;;;;;;;21.05;19.45;;;11.80;89.60;;;;;;4968603;28;20030;-74
2022/10/08 04:16:21;;;;;;;21.90;19.77;;;11.80;89.50;;;;;;4968053;28;20051;-74
2022/10/08 04:18:47;;;;;;;20.90;19.13;;;11.70;89.50;;;;;;4964790;28;20043;-75
2022/10/08 04:21:17;;;;;;;21.15;18.85;;;11.80;89.90;;;;;;4933354;29;20035;-74
2022/10/08 04:23:43;;;;;;;21.90;19.73;;;11.70;89.60;;;;;;4933697;29;20039;-74
2022/10/08 04:26:10;;;;;;;23.13;21.23;;;11.60;89.60;;;;;;4943967;29;20051;-75
2022/10/08 04:28:37;;;;;;;21.02;19.45;;;11.60;90.00;;;;;;4952667;28;20490;-74
2022/10/08 04:31:11;;;;;;;21.05;19.17;;;11.60;90.00;;;;;;4952273;28;20028;-74
2022/10/08 04:33:37;;;;;;;21.42;19.70;;;11.50;90.00;;;;;;4952451;28;20051;-74
2022/10/08 04:36:17;;;;;;;24.88;22.95;;;11.50;90.00;;;;;;4952815;29;20487;-74
2022/10/08 04:38:44;;;;;;;30.30;27.70;;;11.50;90.00;;;;;;4952134;28;20039;-75
2022/10/08 04:41:30;;;;;;;26.23;24.02;;;11.50;90.00;;;;;;4969906;28;20047;-75
2022/10/08 04:43:59;;;;;;;24.05;21.75;;;11.50;90.00;;;;;;4974312;28;20043;-74
2022/10/08 04:46:25;;;;;;;35.30;32.60;;;11.50;90.00;;;;;;4943852;28;20036;-75
2022/10/08 04:48:54;;;;;;;24.50;22.63;;;11.60;90.10;;;;;;4936626;29;20040;-74
2022/10/08 04:51:24;;;;;;;21.75;19.60;;;11.60;90.10;;;;;;4936861;29;20038;-74
2022/10/08 04:53:50;;;;;;;23.75;21.75;;;11.60;90.00;;;;;;4920777;29;20042;-74
2022/10/08 04:56:18;;;;;;;28.90;26.30;;;11.50;90.10;;;;;;4954165;29;20062;-74
2022/10/08 04:58:45;;;;;;;32.10;29.77;;;11.50;90.40;;;;;;4955777;28;20480;-74
2022/10/08 05:01:12;;;;;;;31.38;29.17;;;11.50;90.60;;;;;;4955724;28;20039;-75
2022/10/08 05:03:43;;;;;;;29.88;27.25;;;11.50;90.40;;;;;;4955612;28;20031;-75
2022/10/08 05:06:10;;;;;;;31.42;28.98;;;11.40;90.50;;;;;;4955787;28;20511;-75
2022/10/08 05:08:36;;;;;;;31.83;29.00;;;11.40;90.60;;;;;;4938374;28;20511;-75
2022/10/08 05:11:03;;;;;;;30.60;28.00;;;11.40;90.60;;;;;;4941382;29;20027;-74
2022/10/08 05:13:29;;;;;;;29.95;27.70;;;11.40;90.70;;;;;;4948219;28;20035;-74
2022/10/08 05:15:55;;;;;;;28.73;26.63;;;11.40;90.80;;;;;;4954958;28;20396;-74
2022/10/08 05:18:21;;;;;;;28.90;26.33;;;11.40;90.80;;;;;;4938062;29;20515;-74
2022/10/08 05:20:47;;;;;;;29.88;27.73;;;11.40;91.00;;;;;;4935408;29;20469;-74
2022/10/08 05:23:13;;;;;;;27.10;24.58;;;11.50;90.80;;;;;;4935904;29;20043;-75
2022/10/08 05:25:40;;;;;;;31.25;28.23;;;11.50;90.60;;;;;;4941509;28;20027;-74
2022/10/08 05:28:06;;;;;;;30.83;27.88;;;11.50;90.60;;;;;;4942071;29;20040;-74
2022/10/08 05:30:32;;;;;;;29.17;25.88;;;11.50;90.70;;;;;;4953110;28;20039;-75
2022/10/08 05:32:58;;;;;;;26.10;24.08;;;11.40;90.60;;;;;;4956466;28;20055;-74
2022/10/08 05:35:24;;;;;;;20.77;19.02;;;11.40;90.60;;;;;;4955003;28;20062;-75
2022/10/08 05:37:50;;;;;;;22.60;20.75;;;11.40;90.60;;;;;;4969835;28;20526;-74
2022/10/08 05:40:16;;;;;;;22.63;18.98;;;11.40;90.70;;;;;;4958193;28;20050;-75
2022/10/08 05:42:42;;;;;;;21.10;19.02;;;11.40;90.70;;;;;;4970274;28;20031;-74
2022/10/08 05:45:09;;;;;;;21.42;19.63;;;11.30;90.60;;;;;;4954019;28;20047;-75
2022/10/08 05:47:35;;;;;;;23.17;21.17;;;11.30;90.60;;;;;;4956141;28;20031;-75
2022/10/08 05:50:01;;;;;;;25.17;22.88;;;11.30;90.70;;;;;;4955306;28;20036;-75
2022/10/08 05:52:27;;;;;;;25.10;23.17;;;11.30;90.70;;;;;;4936718;29;20385;-75
2022/10/08 05:54:53;;;;;;;22.02;20.33;;;11.30;90.80;;;;;;4944411;28;20039;-74
2022/10/08 05:57:20;;;;;;;20.17;18.58;;;11.30;90.60;;;;;;4970317;28;20097;-75
2022/10/08 05:59:46;;;;;;;23.35;21.38;;;11.30;90.60;;;;;;4970721;28;20039;-74
2022/10/08 06:02:12;;;;;;;21.83;19.83;;;11.30;90.60;;;;;;4955089;28;20369;-74
2022/10/08 06:04:38;;;;;;;17.88;16.40;;;11.30;90.80;;;;;;4949776;28;20048;-75
2022/10/08 06:07:04;;;;;;;22.95;21.10;;;11.30;90.60;;;;;;4936699;29;20055;-76
2022/10/08 06:09:30;;;;;;;24.63;22.92;;;11.30;92.20;;;;;;4935816;29;20032;-77
2022/10/08 06:11:56;;;;;;;21.88;19.92;;;11.70;99.00;;;;;;4935330;28;20601;-78
2022/10/08 06:14:23;;;;;;;22.35;18.65;;;11.90;98.30;;;;;;4937593;29;20023;-76
2022/10/08 06:16:49;;;;;;;21.45;19.80;;;12.10;97.60;;;;;;4943029;28;20031;-76
2022/10/08 06:19:15;;;;;;;23.45;21.73;;;12.30;98.30;;;;;;4955463;29;20043;-77
2022/10/08 06:21:41;;;;;;;29.55;26.75;;;12.50;98.90;;;;;;4940168;29;20035;-77
2022/10/08 06:24:09;;;;;;;25.27;23.48;;;12.60;99.20;;;;;;4958615;28;20039;-76
2022/10/08 06:26:37;;;;;;;26.80;24.40;;;12.60;98.80;;;;;;4956694;28;20038;-77
2022/10/08 06:29:07;;;;;;;22.60;20.60;;;12.80;99.60;;;;;;4961865;28;20027;-76
2022/10/08 06:31:33;;;;;;;23.60;21.92;;;12.90;99.10;;;;;;4962554;28;20511;-77
2022/10/08 06:34:02;;;;;;;25.88;23.98;;;12.90;99.30;;;;;;4969636;28;20030;-77
2022/10/08 06:36:29;;;;;;;27.60;25.50;;;12.90;99.20;;;;;;4945614;28;20028;-77
2022/10/08 06:38:59;;;;;;;23.92;20.42;;;13.00;98.90;;;;;;4950306;28;20060;-77
2022/10/08 06:41:26;;;;;;;22.40;20.10;;;13.10;99.90;;;;;;4953429;28;20039;-77
2022/10/08 06:43:53;;;;;;;34.13;31.92;;;13.10;99.00;;;;;;4969984;28;20046;-76
2022/10/08 06:46:19;;;;;;;20.65;18.60;;;13.10;98.70;;;;;;4968462;28;20042;-77
2022/10/08 06:48:45;;;;;;;34.60;32.20;;;13.00;97.90;;;;;;4969838;28;20046;-77
2022/10/08 06:51:16;;;;;;;26.30;24.48;;;13.00;98.20;;;;;;4968399;28;20039;-78
2022/10/08 06:53:42;;;;;;;30.63;28.63;;;13.00;98.40;;;;;;4968469;28;20472;-77
2022/10/08 06:56:13;;;;;;;23.17;21.48;;;13.10;97.40;;;;;;4965722;28;20047;-78
2022/10/08 06:58:39;;;;;;;;;;;13.10;97.30;;;;;;4965181;28;20035;-78
2022/10/08 07:01:17;;;;;;;43.13;40.22;;;13.20;96.70;;;;;;4964210;28;19940;-78
2022/10/08 07:03:43;;;;;;;33.80;31.48;;;13.20;96.20;;;;;;4933491;29;20051;-78
2022/10/08 07:06:10;;;;;;;38.10;35.65;;;13.20;96.20;;;;;;4950233;28;20038;-77
2022/10/08 07:08:36;;;;;;;41.10;38.10;;;13.30;96.30;;;;;;4950074;28;20031;-77
2022/10/08 07:11:08;;;;;;;40.55;37.35;;;13.30;95.90;;;;;;4953520;28;20036;-78
2022/10/08 07:13:34;;;;;;;40.22;37.50;;;13.30;96.10;;;;;;4952364;29;20036;-78
2022/10/08 07:16:05;;;;;;;25.17;23.08;;;13.30;95.90;;;;;;4932352;28;20069;-77
2022/10/08 07:18:31;;;;;;;34.33;32.00;;;13.40;95.80;;;;;;4954780;28;20040;-78
2022/10/08 07:20:57;;;;;;;23.73;22.02;;;13.40;94.90;;;;;;4964738;28;20120;-77
2022/10/08 07:23:23;;;;;;;23.27;21.60;;;13.70;96.00;;;;;;4968214;28;20392;-82
2022/10/08 07:25:56;;;;;;;25.38;23.77;;;14.10;94.90;;;;;;4919607;29;20043;-81
2022/10/08 07:28:23;;;;;;;24.52;22.63;;;14.30;94.00;;;;;;4935410;29;20502;-84
2022/10/08 07:30:49;;;;;;;26.77;24.98;;;14.60;93.50;;;;;;4949772;28;20563;-83
2022/10/08 07:33:15;;;;;;;28.08;25.63;;;14.70;93.20;;;;;;4937120;29;20054;-84
2022/10/08 07:35:41;;;;;;;27.05;25.05;;;14.80;92.50;;;;;;4947086;28;20046;-84
2022/10/08 07:38:07;;;;;;;61.35;27.70;;;14.90;92.50;;;;;;4966423;28;20039;-83
2022/10/08 07:40:37;;;;;;;30.45;27.52;;;15.00;92.20;;;;;;4949125;28;20480;-82
2022/10/08 07:43:03;;;;;;;31.05;28.75;;;15.30;92.10;;;;;;4958673;28;20042;-82
2022/10/08 07:45:30;;;;;;;30.73;28.23;;;15.60;91.30;;;;;;4945336;28;20031;-82
2022/10/08 07:47:56;;;;;;;30.10;28.02;;;16.00;91.30;;;;;;4920707;29;20035;-82
2022/10/08 07:50:23;;;;;;;30.55;28.58;;;16.30;90.20;;;;;;4935856;29;20472;-83
2022/10/08 07:52:49;;;;;;;29.35;27.25;;;16.50;89.60;;;;;;4925667;29;20248;-82
2022/10/08 07:55:15;;;;;;;27.45;25.58;;;16.50;87.80;;;;;;4952777;28;20027;-83
2022/10/08 07:57:41;;;;;;;27.90;26.08;;;16.50;86.80;;;;;;4938480;28;20035;-82
2022/10/08 08:00:09;;;;;;;32.33;29.92;;;16.50;87.10;;;;;;4922324;28;20056;-82
2022/10/08 08:02:35;;;;;;;35.80;33.30;;;16.60;86.90;;;;;;4929207;29;21803;-83
2022/10/08 08:05:01;;;;;;;35.53;33.05;;;16.90;87.10;;;;;;4921268;29;20067;-83
2022/10/08 08:07:28;;;;;;;35.42;33.13;;;17.10;86.40;;;;;;4959807;28;20408;-84
2022/10/08 08:09:54;;;;;;;34.47;32.30;;;17.40;86.00;;;;;;4953403;28;20024;-82
2022/10/08 08:12:20;;;;;;;33.35;31.08;;;17.50;82.20;;;;;;4959994;28;20023;-82
2022/10/08 08:14:55;;;;;;;34.67;32.38;;;17.20;82.90;;;;;;4966626;28;20040;-84
2022/10/08 08:17:21;;;;;;;34.33;31.63;;;16.80;83.50;;;;;;4944189;28;20042;-83
2022/10/08 08:19:47;;;;;;;34.53;31.90;;;16.80;84.80;;;;;;4940521;29;20480;-83
2022/10/08 08:22:13;;;;;;;34.22;32.03;;;16.40;85.30;;;;;;4965081;28;20047;-83
2022/10/08 08:24:39;;;;;;;31.58;29.27;;;16.20;85.80;;;;;;4941949;29;20050;-82
2022/10/08 08:27:06;;;;;;;31.50;29.25;;;16.00;87.00;;;;;;4961003;28;20027;-82
2022/10/08 08:29:32;;;;;;;34.33;31.98;;;16.10;87.50;;;;;;4971119;28;20042;-83
2022/10/08 08:31:58;;;;;;;34.75;32.13;;;16.30;87.50;;;;;;4954676;28;20050;-82
2022/10/08 08:34:24;;;;;;;37.03;34.47;;;16.60;87.20;;;;;;4956817;28;20057;-82
2022/10/08 08:36:52;;;;;;;38.90;36.17;;;16.90;86.00;;;;;;4955417;28;20408;-83
2022/10/08 08:39:20;;;;;;;40.60;37.90;;;17.10;84.30;;;;;;4942084;28;20041;-84
2022/10/08 08:42:01;;;;;;;40.20;37.42;;;16.70;85.00;;;;;;4975855;28;20116;-84
2022/10/08 08:44:34;;;;;;;39.05;36.45;;;16.80;85.20;;;;;;4956305;28;20496;-81
2022/10/08 08:47:11;;;;;;;40.15;37.58;;;16.80;85.20;;;;;;4934472;28;20392;-74
2022/10/08 08:49:54;;;;;;;40.08;37.40;;;16.80;85.20;;;;;;4920306;29;20040;-75
2022/10/08 08:52:23;;;;;;;43.53;41.00;;;16.90;85.30;;;;;;4943918;28;20099;-75
2022/10/08 08:54:49;;;;;;;43.30;40.65;;;17.10;85.40;;;;;;4939595;29;20027;-74
2022/10/08 08:57:18;;;;;;;47.40;44.50;;;17.20;85.30;;;;;;4939135;29;20075;-74
2022/10/08 08:59:45;;;;;;;44.13;41.25;;;17.30;85.90;;;;;;4956248;28;20043;-74
2022/10/08 09:02:23;;;;;;;45.53;42.42;;;17.40;85.50;;;;;;4956086;28;20042;-75
2022/10/08 09:05:00;;;;;;;42.13;39.28;;;17.60;84.40;;;;;;4970267;28;20031;-75
2022/10/08 09:07:28;;;;;;;43.90;40.75;;;17.70;82.80;;;;;;4966890;28;20028;-74
2022/10/08 09:09:54;;;;;;;48.80;45.83;;;17.70;83.40;;;;;;4940154;29;20032;-74
2022/10/08 09:12:23;;;;;;;48.75;45.25;;;17.70;84.00;;;;;;4936108;29;20039;-75
2022/10/08 09:14:55;;;;;;;50.92;47.70;;;17.70;84.40;;;;;;4937060;29;20047;-75
2022/10/08 09:17:30;;;;;;;51.83;48.00;;;17.70;84.80;;;;;;4958745;28;20040;-75
2022/10/08 09:19:56;;;;;;;48.38;44.85;;;17.70;85.20;;;;;;4967731;28;20039;-74
2022/10/08 09:22:28;;;;;;;49.83;46.28;;;17.70;85.10;;;;;;4967333;28;20032;-74
2022/10/08 09:25:03;;;;;;;44.30;41.22;;;17.70;85.00;;;;;;4967967;28;20294;-75
2022/10/08 09:28:04;;;;;;;47.97;44.58;;;17.80;83.90;;;;;;4950261;29;22054;-81
2022/10/08 09:30:37;;;;;;;44.22;41.33;;;17.80;84.80;;;;;;4950793;28;20031;-82
2022/10/08 09:33:17;;;;;;;44.15;40.60;;;17.70;84.10;;;;;;4934252;29;20047;-81
2022/10/08 09:35:47;;;;;;;46.63;42.85;;;17.70;83.20;;;;;;4952040;28;20066;-89
2022/10/08 09:38:34;;;;;;;43.05;39.83;;;17.50;84.10;;;;;;4936030;29;20083;-87
2022/10/08 09:41:04;;;;;;;44.53;41.30;;;17.50;83.60;;;;;;4948043;28;20488;-87
2022/10/08 09:43:32;;;;;;;38.65;35.65;;;17.50;84.70;;;;;;4937866;29;20046;-86
2022/10/08 09:45:58;;;;;;;38.28;35.15;;;17.50;83.00;;;;;;4934701;28;20039;-83
2022/10/08 09:48:26;;;;;;;39.33;36.55;;;17.50;82.80;;;;;;4933782;29;20027;-82
2022/10/08 09:51:04;;;;;;;45.30;41.13;;;17.60;82.80;;;;;;4951735;28;20031;-84
2022/10/08 09:53:37;;;;;;;47.03;43.65;;;17.70;84.80;;;;;;4937048;29;20047;-88
2022/10/08 09:56:04;;;;;;;45.08;41.67;;;17.80;84.50;;;;;;4938001;29;20628;-89
2022/10/08 09:58:31;;;;;;;45.30;42.33;;;17.90;84.80;;;;;;4936619;29;20054;-83
2022/10/08 10:01:01;;;;;;;47.22;43.78;;;17.90;84.90;;;;;;4951183;28;20042;-87
2022/10/08 10:03:27;;;;;;;46.83;43.50;;;18.00;83.90;;;;;;4952850;29;20035;-83
2022/10/08 10:05:54;;;;;;;46.65;42.92;;;18.00;81.40;;;;;;4938086;29;20066;-83
2022/10/08 10:08:40;;;;;;;47.90;44.83;;;18.10;87.90;;;;;;4954415;28;20400;-83
2022/10/08 10:11:07;;;;;;;45.10;41.55;;;18.00;80.80;;;;;;4953308;28;20042;-83
2022/10/08 10:13:35;;;;;;;50.08;46.60;;;18.00;80.80;;;;;;4949222;28;20035;-82
2022/10/08 10:16:08;;;;;;;47.92;44.42;;;18.00;79.40;;;;;;4933325;28;20380;-83
2022/10/08 10:18:55;;;;;;;45.20;41.22;;;18.00;79.10;;;;;;4954706;28;20039;-82
2022/10/08 10:21:47;;;;;;;42.70;39.38;;;18.00;80.60;;;;;;4934283;29;20031;-83
2022/10/08 10:24:35;;;;;;;47.40;44.17;;;18.10;79.90;;;;;;4954664;28;20027;-84
2022/10/08 10:27:21;;;;;;;46.45;42.90;;;18.20;79.70;;;;;;4953223;29;20087;-82
2022/10/08 10:29:52;;;;;;;43.28;40.30;;;18.00;82.60;;;;;;4949423;28;20243;-81
2022/10/08 10:32:40;;;;;;;48.25;44.95;;;18.00;80.30;;;;;;4952725;28;20051;-85
2022/10/08 10:35:21;;;;;;;51.80;48.38;;;18.10;80.90;;;;;;4952641;29;20046;-83
2022/10/08 10:38:05;;;;;;;47.08;43.67;;;18.20;79.20;;;;;;4952831;28;20034;-80
2022/10/08 10:40:37;;;;;;;46.63;42.95;;;18.20;76.40;;;;;;4956627;28;20512;-82
2022/10/08 10:43:33;;;;;;;45.80;42.67;;;18.20;77.50;;;;;;4943686;29;20035;-82
2022/10/08 10:46:17;;;;;;;45.15;41.70;;;18.10;76.00;;;;;;4953534;28;20035;-81
2022/10/08 10:48:43;;;;;;;46.47;43.22;;;18.10;75.90;;;;;;4965205;28;20038;-83
2022/10/08 10:51:40;;;;;;;47.35;43.80;;;18.10;76.40;;;;;;4936120;29;20066;-75
2022/10/08 10:54:35;;;;;;;44.97;41.40;;;18.10;74.20;;;;;;4957297;28;20046;-75
2022/10/08 10:57:08;;;;;;;44.83;41.70;;;18.10;74.00;;;;;;4951890;29;20027;-76
2022/10/08 10:59:46;;;;;;;43.58;40.67;;;18.10;73.20;;;;;;4964020;28;20399;-76
2022/10/08 11:02:30;;;;;;;47.13;43.83;;;18.10;73.70;;;;;;4953264;28;20392;-76
2022/10/08 11:05:20;;;;;;;42.17;39.45;;;18.20;73.80;;;;;;4953026;29;20035;-77
2022/10/08 11:08:10;;;;;;;44.63;41.50;;;18.20;72.90;;;;;;4946539;28;20043;-76
2022/10/08 11:10:45;;;;;;;45.53;42.33;;;18.20;71.50;;;;;;4956836;28;20032;-77
2022/10/08 11:13:29;;;;;;;45.90;42.65;;;18.20;72.10;;;;;;4950503;29;20026;-76
2022/10/08 11:16:13;;;;;;;42.95;39.78;;;18.20;72.00;;;;;;4950899;28;20039;-78
2022/10/08 11:18:42;;;;;;;47.55;44.03;;;18.20;73.50;;;;;;4955374;28;20042;-77
2022/10/08 11:21:45;;;;;;;45.47;42.35;;;18.30;73.40;;;;;;4953413;29;20043;-77
2022/10/08 11:24:28;;;;;;;46.67;43.40;;;18.50;73.20;;;;;;4945710;28;20094;-77
2022/10/08 11:27:10;;;;;;;46.83;43.78;;;18.60;72.70;;;;;;4939833;28;20053;-77
2022/10/08 11:29:48;;;;;;;46.35;42.90;;;18.60;72.10;;;;;;4952422;28;20432;-76
2022/10/08 11:32:15;;;;;;;50.75;46.58;;;18.70;72.80;;;;;;4951011;28;20047;-77
2022/10/08 11:35:10;;;;;;;48.28;45.13;;;18.70;72.60;;;;;;4966753;28;20038;-76
2022/10/08 11:37:42;;;;;;;51.00;47.42;;;18.80;72.80;;;;;;4950346;28;20046;-76
2022/10/08 11:40:27;;;;;;;52.88;49.60;;;18.90;72.80;;;;;;4940037;28;20062;-76
2022/10/08 11:43:08;;;;;;;49.53;46.28;;;19.00;71.30;;;;;;4933373;29;20050;-76
2022/10/08 11:45:36;;;;;;;49.25;45.95;;;19.10;71.10;;;;;;4942596;28;20287;-75
2022/10/08 11:48:24;;;;;;;45.47;42.58;;;18.90;70.90;;;;;;4936569;29;20424;-76
2022/10/08 11:50:50;;;;;;;46.40;43.38;;;18.90;71.30;;;;;;4952835;28;20500;-76
2022/10/08 11:53:20;;;;;;;43.47;40.50;;;18.80;71.80;;;;;;4971059;28;20027;-76
2022/10/08 11:55:56;;;;;;;44.60;41.88;;;18.90;72.20;;;;;;4971119;28;20047;-76
2022/10/08 11:58:30;;;;;;;43.15;40.13;;;19.00;71.50;;;;;;4967749;28;20031;-76
2022/10/08 12:01:04;;;;;;;38.50;35.78;;;19.00;71.30;;;;;;4937546;28;20496;-76
2022/10/08 12:03:37;;;;;;;43.72;40.78;;;18.90;71.70;;;;;;4970268;28;20051;-75
2022/10/08 12:06:34;;;;;;;45.60;42.60;;;18.80;72.20;;;;;;4936651;29;20485;-76
2022/10/08 12:09:04;;;;;;;43.55;40.53;;;18.90;72.50;;;;;;4932215;29;20507;-75
2022/10/08 12:11:31;;;;;;;39.45;36.53;;;18.70;72.20;;;;;;4953010;28;20040;-75
2022/10/08 12:14:13;;;;;;;38.95;36.42;;;18.60;73.40;;;;;;4947698;29;20034;-76
2022/10/08 12:16:48;;;;;;;40.60;37.50;;;18.60;73.40;;;;;;4945667;28;20040;-75
2022/10/08 12:19:32;;;;;;;40.67;38.05;;;18.60;74.40;;;;;;4955672;28;20032;-76
2022/10/08 12:22:13;;;;;;;39.92;37.42;;;18.80;73.30;;;;;;4950617;28;20042;-76
2022/10/08 12:24:39;;;;;;;;;;;19.00;72.40;;;;;;4955365;29;20381;-75
2022/10/08 12:27:20;;;;;;;36.28;33.80;;;19.10;71.70;;;;;;4951399;28;20000;-75
2022/10/08 12:30:07;;;;;;;39.35;36.90;;;19.10;70.70;;;;;;4954884;28;20035;-75
2022/10/08 12:32:43;;;;;;;40.78;37.45;;;19.20;70.60;;;;;;4955009;28;20055;-75
2022/10/08 12:35:24;;;;;;;37.35;35.08;;;19.20;70.00;;;;;;4956669;28;20027;-76
2022/10/08 12:37:59;;;;;;;42.42;39.70;;;19.30;69.70;;;;;;4955248;29;20034;-76
2022/10/08 12:40:49;;;;;;;45.97;43.05;;;19.50;68.40;;;;;;4955445;28;20047;-76
2022/10/08 12:43:37;;;;;;;43.70;40.97;;;19.60;69.30;;;;;;4938348;29;20039;-76
2022/10/08 12:46:16;;;;;;;49.17;46.17;;;19.80;68.20;;;;;;4956326;28;20024;-76
2022/10/08 12:48:50;;;;;;;46.45;43.78;;;19.80;66.70;;;;;;4954854;28;20031;-76